sensor_id;sensor_type;location;lat;lon;timestamp;pressure;altitude;pressure_sealevel;temperature;humidity
56330;BME280;42236;48.058;10.632;2024-03-06T00:02:37;94603.63;;;4.09;100.00
56330;BME280;42236;48.058;10.632;2024-03-06T00:05:23;94595.31;;;4.11;100.00
56330;BME280;42236;48.058;10.632;2024-03-06T00:08:08;94594.72;;;4.14;100.00
56330;BME280;42236;48.058;10.632;2024-03-06T00:10:54;94598.78;;;4.11;100.00
56330;BME280;42236;48.058;10.632;2024-03-06T00:13:40;94592.47;;;4.07;100.00
56330;BME280;42236;48.058;10.632;2024-03-06T00:16:26;94595.75;;;4.04;100.00
56330;BME280;42236;48.058;10.632;2024-03-06T00:19:12;94592.56;;;4.02;100.00
56330;BME280;42236;48.058;10.632;2024-03-06T00:22:00;94597.41;;;4.00;100.00
56330;BME280;42236;48.058;10.632;2024-03-06T00:24:46;94601.09;;;4.04;100.00
56330;BME280;42236;48.058;10.632;2024-03-06T00:27:32;94599.00;;;4.01;100.00
56330;BME280;42236;48.058;10.632;2024-03-06T00:30:18;94587.84;;;3.99;100.00
56330;BME280;42236;48.058;10.632;2024-03-06T00:33:04;94592.69;;;3.97;100.00
56330;BME280;42236;48.058;10.632;2024-03-06T00:35:50;94596.31;;;4.01;100.00
56330;BME280;42236;48.058;10.632;2024-03-06T00:38:36;94596.63;;;3.99;100.00
56330;BME280;42236;48.058;10.632;2024-03-06T00:41:22;94603.53;;;4.00;100.00
56330;BME280;42236;48.058;10.632;2024-03-06T00:44:11;94590.97;;;4.01;100.00
56330;BME280;42236;48.058;10.632;2024-03-06T00:46:57;94591.59;;;3.98;100.00
56330;BME280;42236;48.058;10.632;2024-03-06T00:49:42;94599.59;;;3.98;100.00
56330;BME280;42236;48.058;10.632;2024-03-06T00:52:28;94592.19;;;3.95;100.00
56330;BME280;42236;48.058;10.632;2024-03-06T00:55:14;94595.94;;;3.94;100.00
56330;BME280;42236;48.058;10.632;2024-03-06T00:57:59;94597.81;;;3.93;100.00
56330;BME280;42236;48.058;10.632;2024-03-06T01:00:45;94597.81;;;3.93;100.00
56330;BME280;42236;48.058;10.632;2024-03-06T01:03:31;94598.91;;;3.92;100.00
56330;BME280;42236;48.058;10.632;2024-03-06T01:06:16;94594.19;;;3.89;100.00
56330;BME280;42236;48.058;10.632;2024-03-06T01:09:02;94597.16;;;3.88;100.00
56330;BME280;42236;48.058;10.632;2024-03-06T01:11:48;94604.06;;;3.89;100.00
56330;BME280;42236;48.058;10.632;2024-03-06T01:14:33;94601.69;;;3.87;100.00
56330;BME280;42236;48.058;10.632;2024-03-06T01:17:19;94610.59;;;3.82;100.00
56330;BME280;42236;48.058;10.632;2024-03-06T01:20:05;94598.31;;;3.81;100.00
56330;BME280;42236;48.058;10.632;2024-03-06T01:22:54;94607.22;;;3.77;100.00
56330;BME280;42236;48.058;10.632;2024-03-06T01:25:39;94608.03;;;3.77;100.00
56330;BME280;42236;48.058;10.632;2024-03-06T01:28:25;94608.03;;;3.77;100.00
56330;BME280;42236;48.058;10.632;2024-03-06T01:31:11;94597.47;;;3.72;100.00
56330;BME280;42236;48.058;10.632;2024-03-06T01:33:57;94609.81;;;3.68;100.00
56330;BME280;42236;48.058;10.632;2024-03-06T01:36:42;94608.41;;;3.57;100.00
56330;BME280;42236;48.058;10.632;2024-03-06T01:39:28;94608.91;;;3.59;100.00
56330;BME280;42236;48.058;10.632;2024-03-06T01:42:16;94608.41;;;3.57;100.00
56330;BME280;42236;48.058;10.632;2024-03-06T01:45:02;94603.69;;;3.54;100.00
56330;BME280;42236;48.058;10.632;2024-03-06T01:47:49;94601.13;;;3.49;100.00
56330;BME280;42236;48.058;10.632;2024-03-06T01:50:36;94602.28;;;3.42;100.00
56330;BME280;42236;48.058;10.632;2024-03-06T01:53:22;94598.16;;;3.36;100.00
56330;BME280;42236;48.058;10.632;2024-03-06T01:56:10;94592.91;;;3.31;100.00
56330;BME280;42236;48.058;10.632;2024-03-06T01:58:58;94591.41;;;3.25;100.00
56330;BME280;42236;48.058;10.632;2024-03-06T02:01:44;94593.59;;;3.23;100.00
56330;BME280;42236;48.058;10.632;2024-03-06T02:04:31;94596.84;;;3.20;100.00
56330;BME280;42236;48.058;10.632;2024-03-06T02:07:17;94591.13;;;3.13;100.00
56330;BME280;42236;48.058;10.632;2024-03-06T02:10:04;94591.22;;;3.08;100.00
56330;BME280;42236;48.058;10.632;2024-03-06T02:12:53;94585.09;;;3.07;100.00
56330;BME280;42236;48.058;10.632;2024-03-06T02:15:39;94585.66;;;3.04;100.00
56330;BME280;42236;48.058;10.632;2024-03-06T02:18:25;94588.03;;;3.06;100.00
56330;BME280;42236;48.058;10.632;2024-03-06T02:21:11;94587.03;;;3.02;100.00
56330;BME280;42236;48.058;10.632;2024-03-06T02:23:56;94583.41;;;2.97;100.00
56330;BME280;42236;48.058;10.632;2024-03-06T02:26:42;94575.97;;;2.94;100.00
56330;BME280;42236;48.058;10.632;2024-03-06T02:29:28;94576.28;;;2.93;100.00
56330;BME280;42236;48.058;10.632;2024-03-06T02:32:13;94582.50;;;2.88;100.00
56330;BME280;42236;48.058;10.632;2024-03-06T02:35:03;94580.41;;;2.85;100.00
56330;BME280;42236;48.058;10.632;2024-03-06T02:37:48;94582.84;;;2.82;100.00
56330;BME280;42236;48.058;10.632;2024-03-06T02:40:34;94586.03;;;2.84;100.00
56330;BME280;42236;48.058;10.632;2024-03-06T02:43:20;94583.88;;;2.86;100.00
56330;BME280;42236;48.058;10.632;2024-03-06T02:46:05;94581.38;;;2.89;100.00
56330;BME280;42236;48.058;10.632;2024-03-06T02:48:51;94582.06;;;2.81;100.00
56330;BME280;42236;48.058;10.632;2024-03-06T02:51:37;94586.03;;;2.84;100.00
56330;BME280;42236;48.058;10.632;2024-03-06T02:54:22;94581.47;;;2.84;100.00
56330;BME280;42236;48.058;10.632;2024-03-06T02:57:10;94583.63;;;2.82;100.00
56330;BME280;42236;48.058;10.632;2024-03-06T02:59:57;94589.56;;;2.79;100.00
56330;BME280;42236;48.058;10.632;2024-03-06T03:02:42;94586.81;;;2.84;100.00
56330;BME280;42236;48.058;10.632;2024-03-06T03:05:28;94586.72;;;2.89;100.00
56330;BME280;42236;48.058;10.632;2024-03-06T03:08:14;94583.19;;;2.94;100.00
56330;BME280;42236;48.058;10.632;2024-03-06T03:11:01;94582.91;;;2.95;100.00
56330;BME280;42236;48.058;10.632;2024-03-06T03:13:47;94587.72;;;2.93;100.00
56330;BME280;42236;48.058;10.632;2024-03-06T03:16:32;94578.94;;;2.93;100.00
56330;BME280;42236;48.058;10.632;2024-03-06T03:19:18;94582.50;;;2.88;100.00
56330;BME280;42236;48.058;10.632;2024-03-06T03:22:04;94574.59;;;2.83;100.00
56330;BME280;42236;48.058;10.632;2024-03-06T03:24:49;94582.66;;;2.78;100.00
56330;BME280;42236;48.058;10.632;2024-03-06T03:27:36;94581.66;;;2.74;100.00
56330;BME280;42236;48.058;10.632;2024-03-06T03:30:22;94584.31;;;2.74;100.00
56330;BME280;42236;48.058;10.632;2024-03-06T03:33:08;94578.22;;;2.73;100.00
56330;BME280;42236;48.058;10.632;2024-03-06T03:35:54;94576.34;;;2.74;100.00
56330;BME280;42236;48.058;10.632;2024-03-06T03:38:40;94573.16;;;2.72;100.00
56330;BME280;42236;48.058;10.632;2024-03-06T03:41:26;94579.09;;;2.69;100.00
56330;BME280;42236;48.058;10.632;2024-03-06T03:44:13;94585.47;;;2.68;100.00
56330;BME280;42236;48.058;10.632;2024-03-06T03:46:58;94583.91;;;2.67;100.00
56330;BME280;42236;48.058;10.632;2024-03-06T03:49:44;94589.22;;;2.67;100.00
56330;BME280;42236;48.058;10.632;2024-03-06T03:52:30;94588.13;;;2.68;100.00
56330;BME280;42236;48.058;10.632;2024-03-06T03:55:15;94586.56;;;2.67;100.00
56330;BME280;42236;48.058;10.632;2024-03-06T03:58:01;94588.94;;;2.68;100.00
56330;BME280;42236;48.058;10.632;2024-03-06T04:00:47;94588.13;;;2.68;100.00
56330;BME280;42236;48.058;10.632;2024-03-06T04:03:37;94590.03;;;2.67;100.00
56330;BME280;42236;48.058;10.632;2024-03-06T04:06:23;94592.19;;;2.65;100.00
56330;BME280;42236;48.058;10.632;2024-03-06T04:09:09;94598.78;;;2.68;100.00
56330;BME280;42236;48.058;10.632;2024-03-06T04:12:00;94599.09;;;2.66;100.00
56330;BME280;42236;48.058;10.632;2024-03-06T04:14:45;94593.56;;;2.63;100.00
56330;BME280;42236;48.058;10.632;2024-03-06T04:17:31;94600.56;;;2.59;100.00
56330;BME280;42236;48.058;10.632;2024-03-06T04:20:17;94602.13;;;2.60;100.00
56330;BME280;42236;48.058;10.632;2024-03-06T04:23:02;94603.69;;;2.61;100.00
56330;BME280;42236;48.058;10.632;2024-03-06T04:25:48;94606.09;;;2.62;100.00
56330;BME280;42236;48.058;10.632;2024-03-06T04:28:34;94618.88;;;2.60;100.00
56330;BME280;42236;48.058;10.632;2024-03-06T04:31:20;94608.75;;;2.62;100.00
56330;BME280;42236;48.058;10.632;2024-03-06T04:34:05;94612.19;;;2.63;100.00
56330;BME280;42236;48.058;10.632;2024-03-06T04:36:51;94620.50;;;2.61;100.00
56330;BME280;42236;48.058;10.632;2024-03-06T04:39:37;94614.34;;;2.61;100.00
56330;BME280;42236;48.058;10.632;2024-03-06T04:42:22;94620.25;;;2.58;100.00
56330;BME280;42236;48.058;10.632;2024-03-06T04:45:13;94616.31;;;2.55;100.00
56330;BME280;42236;48.058;10.632;2024-03-06T04:48:00;94621.63;;;2.55;100.00
56330;BME280;42236;48.058;10.632;2024-03-06T04:50:46;94627.19;;;2.59;100.00
56330;BME280;42236;48.058;10.632;2024-03-06T04:53:31;94620.97;;;2.63;100.00
56330;BME280;42236;48.058;10.632;2024-03-06T04:56:17;94621.47;;;2.65;100.00
56330;BME280;42236;48.058;10.632;2024-03-06T04:59:04;94630.84;;;2.63;100.00
56330;BME280;42236;48.058;10.632;2024-03-06T05:01:50;94623.44;;;2.60;100.00
56330;BME280;42236;48.058;10.632;2024-03-06T05:04:36;94627.97;;;2.59;100.00
56330;BME280;42236;48.058;10.632;2024-03-06T05:07:21;94630.91;;;2.58;100.00
56330;BME280;42236;48.058;10.632;2024-03-06T05:10:07;94625.88;;;2.56;100.00
56330;BME280;42236;48.058;10.632;2024-03-06T05:12:54;94624.56;;;2.53;100.00
56330;BME280;42236;48.058;10.632;2024-03-06T05:15:39;94626.19;;;2.54;100.00
56330;BME280;42236;48.058;10.632;2024-03-06T05:18:25;94630.50;;;2.50;100.00
56330;BME280;42236;48.058;10.632;2024-03-06T05:21:11;94635.81;;;2.50;100.00
56330;BME280;42236;48.058;10.632;2024-03-06T05:23:57;94640.34;;;2.50;100.00
56330;BME280;42236;48.058;10.632;2024-03-06T05:26:42;94638.28;;;2.47;100.00
56330;BME280;42236;48.058;10.632;2024-03-06T05:29:28;94643.59;;;2.47;100.00
56330;BME280;42236;48.058;10.632;2024-03-06T05:32:14;94648.41;;;2.45;100.00
56330;BME280;42236;48.058;10.632;2024-03-06T05:34:59;94648.41;;;2.45;100.00
56330;BME280;42236;48.058;10.632;2024-03-06T05:37:45;94640.19;;;2.41;100.00
56330;BME280;42236;48.058;10.632;2024-03-06T05:40:31;94643.97;;;2.40;100.00
56330;BME280;42236;48.058;10.632;2024-03-06T05:43:21;94640.78;;;2.38;100.00
56330;BME280;42236;48.058;10.632;2024-03-06T05:46:06;94646.63;;;2.40;100.00
56330;BME280;42236;48.058;10.632;2024-03-06T05:48:52;94647.13;;;2.42;100.00
56330;BME280;42236;48.058;10.632;2024-03-06T05:51:37;94652.72;;;2.41;100.00
56330;BME280;42236;48.058;10.632;2024-03-06T05:54:23;94659.66;;;2.42;100.00
56330;BME280;42236;48.058;10.632;2024-03-06T05:57:10;94652.22;;;2.39;100.00
56330;BME280;42236;48.058;10.632;2024-03-06T05:59:55;94654.88;;;2.39;100.00
56330;BME280;42236;48.058;10.632;2024-03-06T06:02:42;94661.81;;;2.40;100.00
56330;BME280;42236;48.058;10.632;2024-03-06T06:05:28;94661.50;;;2.41;100.00
56330;BME280;42236;48.058;10.632;2024-03-06T06:08:13;94666.03;;;2.41;100.00
56330;BME280;42236;48.058;10.632;2024-03-06T06:10:59;94675.31;;;2.43;100.00
56330;BME280;42236;48.058;10.632;2024-03-06T06:13:45;94674.25;;;2.44;100.00
56330;BME280;42236;48.058;10.632;2024-03-06T06:16:41;94674.75;;;2.46;100.00
56330;BME280;42236;48.058;10.632;2024-03-06T06:19:27;94679.78;;;2.48;100.00
56330;BME280;42236;48.058;10.632;2024-03-06T06:22:13;94673.38;;;2.49;100.00
56330;BME280;42236;48.058;10.632;2024-03-06T06:24:59;94682.16;;;2.49;100.00
56330;BME280;42236;48.058;10.632;2024-03-06T06:27:44;94679.50;;;2.49;100.00
56330;BME280;42236;48.058;10.632;2024-03-06T06:30:31;94684.31;;;2.47;100.00
56330;BME280;42236;48.058;10.632;2024-03-06T06:33:16;94680.06;;;2.46;100.00
56330;BME280;42236;48.058;10.632;2024-03-06T06:36:03;94683.53;;;2.47;100.00
56330;BME280;42236;48.058;10.632;2024-03-06T06:38:49;94687.25;;;2.46;100.00
56330;BME280;42236;48.058;10.632;2024-03-06T06:41:35;94682.72;;;2.46;100.00
56330;BME280;42236;48.058;10.632;2024-03-06T06:44:21;94693.38;;;2.46;100.00
56330;BME280;42236;48.058;10.632;2024-03-06T06:47:06;94690.94;;;2.50;100.00
56330;BME280;42236;48.058;10.632;2024-03-06T06:49:52;94688.56;;;2.48;100.00
56330;BME280;42236;48.058;10.632;2024-03-06T06:52:38;94688.28;;;2.50;100.00
56330;BME280;42236;48.058;10.632;2024-03-06T06:55:24;94687.50;;;2.49;100.00
56330;BME280;42236;48.058;10.632;2024-03-06T06:58:10;94683.16;;;2.53;100.00
56330;BME280;42236;48.058;10.632;2024-03-06T07:00:55;94691.66;;;2.55;100.00
56330;BME280;42236;48.058;10.632;2024-03-06T07:03:41;94686.84;;;2.58;100.00
56330;BME280;42236;48.058;10.632;2024-03-06T07:06:27;94691.38;;;2.57;100.00
56330;BME280;42236;48.058;10.632;2024-03-06T07:09:12;94693.47;;;2.60;100.00
56330;BME280;42236;48.058;10.632;2024-03-06T07:12:01;94692.09;;;2.63;100.00
56330;BME280;42236;48.058;10.632;2024-03-06T07:14:46;94696.81;;;2.66;100.00
56330;BME280;42236;48.058;10.632;2024-03-06T07:17:32;94705.31;;;2.68;100.00
56330;BME280;42236;48.058;10.632;2024-03-06T07:20:18;94696.28;;;2.69;100.00
56330;BME280;42236;48.058;10.632;2024-03-06T07:23:04;94700.22;;;2.71;100.00
56330;BME280;42236;48.058;10.632;2024-03-06T07:25:49;94700.44;;;2.75;100.00
56330;BME280;42236;48.058;10.632;2024-03-06T07:28:36;94702.53;;;2.78;100.00
56330;BME280;42236;48.058;10.632;2024-03-06T07:31:22;94702.53;;;2.78;100.00
56330;BME280;42236;48.058;10.632;2024-03-06T07:34:09;94703.00;;;2.80;100.00
56330;BME280;42236;48.058;10.632;2024-03-06T07:36:55;94706.97;;;2.83;100.00
56330;BME280;42236;48.058;10.632;2024-03-06T07:39:40;94710.66;;;2.87;100.00
56330;BME280;42236;48.058;10.632;2024-03-06T07:42:26;94711.16;;;2.89;100.00
56330;BME280;42236;48.058;10.632;2024-03-06T07:45:12;94718.06;;;2.90;100.00
56330;BME280;42236;48.058;10.632;2024-03-06T07:47:57;94717.00;;;2.91;100.00
56330;BME280;42236;48.058;10.632;2024-03-06T07:50:43;94717.28;;;2.89;100.00
56330;BME280;42236;48.058;10.632;2024-03-06T07:53:29;94717.56;;;2.88;100.00
56330;BME280;42236;48.058;10.632;2024-03-06T07:56:14;94723.97;;;2.87;100.00
56330;BME280;42236;48.058;10.632;2024-03-06T07:59:00;94719.94;;;2.89;100.00
56330;BME280;42236;48.058;10.632;2024-03-06T08:01:46;94727.13;;;2.89;100.00
56330;BME280;42236;48.058;10.632;2024-03-06T08:04:32;94724.47;;;2.89;100.00
56330;BME280;42236;48.058;10.632;2024-03-06T08:07:17;94726.56;;;2.92;100.00
56330;BME280;42236;48.058;10.632;2024-03-06T08:10:03;94723.03;;;2.96;100.00
56330;BME280;42236;48.058;10.632;2024-03-06T08:12:51;94723.81;;;2.97;100.00
56330;BME280;42236;48.058;10.632;2024-03-06T08:15:36;94729.97;;;2.97;100.00
56330;BME280;42236;48.058;10.632;2024-03-06T08:18:22;94732.63;;;2.97;100.00
56330;BME280;42236;48.058;10.632;2024-03-06T08:21:08;94733.09;;;2.99;100.00
56330;BME280;42236;48.058;10.632;2024-03-06T08:23:54;94727.50;;;3.01;100.00
56330;BME280;42236;48.058;10.632;2024-03-06T08:26:40;94734.97;;;2.99;100.00
56330;BME280;42236;48.058;10.632;2024-03-06T08:29:25;94733.91;;;3.00;100.00
56330;BME280;42236;48.058;10.632;2024-03-06T08:32:11;94740.03;;;3.01;100.00
56330;BME280;42236;48.058;10.632;2024-03-06T08:34:57;94738.94;;;3.02;100.00
56330;BME280;42236;48.058;10.632;2024-03-06T08:37:42;94735.72;;;3.05;100.00
56330;BME280;42236;48.058;10.632;2024-03-06T08:40:28;94758.25;;;3.12;100.00
56330;BME280;42236;48.058;10.632;2024-03-06T08:43:14;94754.13;;;3.20;100.00
56330;BME280;42236;48.058;10.632;2024-03-06T08:46:00;94756.19;;;3.23;100.00
56330;BME280;42236;48.058;10.632;2024-03-06T08:48:46;94754.53;;;3.27;100.00
56330;BME280;42236;48.058;10.632;2024-03-06T08:51:32;94764.03;;;3.33;100.00
56330;BME280;42236;48.058;10.632;2024-03-06T08:54:18;94753.59;;;3.37;100.00
56330;BME280;42236;48.058;10.632;2024-03-06T08:57:04;94760.22;;;3.39;100.00
56330;BME280;42236;48.058;10.632;2024-03-06T08:59:49;94759.13;;;3.40;100.00
56330;BME280;42236;48.058;10.632;2024-03-06T09:02:39;94765.97;;;3.47;100.00
56330;BME280;42236;48.058;10.632;2024-03-06T09:05:25;94765.59;;;3.53;100.00
56330;BME280;42236;48.058;10.632;2024-03-06T09:08:11;94762.41;;;3.51;100.00
56330;BME280;42236;48.058;10.632;2024-03-06T09:10:57;94764.81;;;3.53;100.00
56330;BME280;42236;48.058;10.632;2024-03-06T09:13:44;94761.72;;;3.46;100.00
56330;BME280;42236;48.058;10.632;2024-03-06T09:16:30;94761.00;;;3.40;100.00
56330;BME280;42236;48.058;10.632;2024-03-06T09:19:15;94761.31;;;3.38;100.00
56330;BME280;42236;48.058;10.632;2024-03-06T09:22:01;94762.19;;;3.34;100.00
56330;BME280;42236;48.058;10.632;2024-03-06T09:24:48;94764.53;;;3.35;100.00
56330;BME280;42236;48.058;10.632;2024-03-06T09:27:34;94769.78;;;3.40;100.00
56330;BME280;42236;48.058;10.632;2024-03-06T09:30:19;94764.66;;;3.44;100.00
56330;BME280;42236;48.058;10.632;2024-03-06T09:33:05;94773.38;;;3.50;100.00
56330;BME280;42236;48.058;10.632;2024-03-06T09:35:51;94775.16;;;3.54;100.00
56330;BME280;42236;48.058;10.632;2024-03-06T09:38:36;94783.59;;;3.61;100.00
56330;BME280;42236;48.058;10.632;2024-03-06T09:41:25;94780.03;;;3.66;100.00
56330;BME280;42236;48.058;10.632;2024-03-06T09:44:11;94787.44;;;3.69;100.00
56330;BME280;42236;48.058;10.632;2024-03-06T09:46:59;94784.13;;;3.77;100.00
56330;BME280;42236;48.058;10.632;2024-03-06T09:49:47;94790.16;;;3.83;100.00
56330;BME280;42236;48.058;10.632;2024-03-06T09:52:34;94789.88;;;3.84;100.00
56330;BME280;42236;48.058;10.632;2024-03-06T09:55:21;94788.19;;;3.89;100.00
56330;BME280;42236;48.058;10.632;2024-03-06T09:58:07;94788.91;;;3.94;100.00
56330;BME280;42236;48.058;10.632;2024-03-06T10:00:55;94783.16;;;4.01;100.00
56330;BME280;42236;48.058;10.632;2024-03-06T10:03:41;94790.69;;;3.99;100.00
56330;BME280;42236;48.058;10.632;2024-03-06T10:06:27;94795.31;;;3.93;100.00
56330;BME280;42236;48.058;10.632;2024-03-06T10:09:16;94793.66;;;3.97;100.00
56330;BME280;42236;48.058;10.632;2024-03-06T10:12:02;94794.34;;;3.89;100.00
56330;BME280;42236;48.058;10.632;2024-03-06T10:14:52;94789.97;;;3.79;100.00
56330;BME280;42236;48.058;10.632;2024-03-06T10:17:38;94791.03;;;3.78;100.00
56330;BME280;42236;48.058;10.632;2024-03-06T10:20:24;94802.72;;;3.82;100.00
56330;BME280;42236;48.058;10.632;2024-03-06T10:23:10;94803.69;;;3.87;100.00
56330;BME280;42236;48.058;10.632;2024-03-06T10:25:56;94804.69;;;3.91;100.00
56330;BME280;42236;48.058;10.632;2024-03-06T10:28:44;94808.88;;;3.97;100.00
56330;BME280;42236;48.058;10.632;2024-03-06T10:31:30;94809.06;;;4.00;100.00
56330;BME280;42236;48.058;10.632;2024-03-06T10:34:16;94813.81;;;4.03;100.00
56330;BME280;42236;48.058;10.632;2024-03-06T10:37:02;94817.47;;;4.07;100.00
56330;BME280;42236;48.058;10.632;2024-03-06T10:39:52;94813.75;;;4.09;100.00
56330;BME280;42236;48.058;10.632;2024-03-06T10:42:40;94812.94;;;4.08;100.00
56330;BME280;42236;48.058;10.632;2024-03-06T10:45:39;94814.72;;;3.99;100.00
56330;BME280;42236;48.058;10.632;2024-03-06T10:48:27;94822.63;;;4.04;100.00
56330;BME280;42236;48.058;10.632;2024-03-06T10:51:14;94820.94;;;4.08;100.00
56330;BME280;42236;48.058;10.632;2024-03-06T10:54:00;94825.72;;;4.11;100.00
56330;BME280;42236;48.058;10.632;2024-03-06T10:56:46;94832.63;;;4.12;100.00
56330;BME280;42236;48.058;10.632;2024-03-06T10:59:32;94828.53;;;4.01;100.00
56330;BME280;42236;48.058;10.632;2024-03-06T11:02:21;94831.38;;;3.91;100.00
56330;BME280;42236;48.058;10.632;2024-03-06T11:05:08;94824.47;;;3.90;100.00
56330;BME280;42236;48.058;10.632;2024-03-06T11:07:54;94825.03;;;3.87;100.00
56330;BME280;42236;48.058;10.632;2024-03-06T11:10:42;94822.47;;;3.81;100.00
56330;BME280;42236;48.058;10.632;2024-03-06T11:13:30;94824.84;;;3.83;100.00
56330;BME280;42236;48.058;10.632;2024-03-06T11:16:18;94826.66;;;3.88;100.00
56330;BME280;42236;48.058;10.632;2024-03-06T11:19:05;94820.63;;;3.96;100.00
56330;BME280;42236;48.058;10.632;2024-03-06T11:21:52;94826.38;;;4.03;100.00
56330;BME280;42236;48.058;10.632;2024-03-06T11:24:37;94823.91;;;4.06;100.00
56330;BME280;42236;48.058;10.632;2024-03-06T11:27:24;94824.59;;;4.12;100.00
56330;BME280;42236;48.058;10.632;2024-03-06T11:30:10;94836.78;;;4.18;100.00
56330;BME280;42236;48.058;10.632;2024-03-06T11:33:03;94837.59;;;4.19;100.00
56330;BME280;42236;48.058;10.632;2024-03-06T11:36:18;94839.66;;;4.22;100.00
56330;BME280;42236;48.058;10.632;2024-03-06T11:39:08;94838.78;;;4.26;100.00
56330;BME280;42236;48.058;10.632;2024-03-06T11:41:54;94835.22;;;4.31;100.00
56330;BME280;42236;48.058;10.632;2024-03-06T11:44:53;94833.84;;;4.34;100.00
56330;BME280;42236;48.058;10.632;2024-03-06T11:48:04;94833.56;;;4.35;100.00
56330;BME280;42236;48.058;10.632;2024-03-06T11:50:50;94839.97;;;4.34;100.00
56330;BME280;42236;48.058;10.632;2024-03-06T11:53:36;94844.69;;;4.37;100.00
56330;BME280;42236;48.058;10.632;2024-03-06T11:56:24;94847.19;;;4.34;100.00
56330;BME280;42236;48.058;10.632;2024-03-06T11:59:10;94837.59;;;4.33;100.00
56330;BME280;42236;48.058;10.632;2024-03-06T12:01:59;94843.50;;;4.30;100.00
56330;BME280;42236;48.058;10.632;2024-03-06T12:04:48;94841.72;;;4.25;100.00
56330;BME280;42236;48.058;10.632;2024-03-06T12:07:44;94840.34;;;4.14;100.00
56330;BME280;42236;48.058;10.632;2024-03-06T12:10:30;94844.69;;;4.10;100.00
56330;BME280;42236;48.058;10.632;2024-03-06T12:13:16;94843.09;;;4.09;100.00
56330;BME280;42236;48.058;10.632;2024-03-06T12:16:06;94853.19;;;4.12;100.00
56330;BME280;42236;48.058;10.632;2024-03-06T12:18:57;94849.50;;;4.07;100.00
56330;BME280;42236;48.058;10.632;2024-03-06T12:21:43;94853.56;;;4.05;100.00
56330;BME280;42236;48.058;10.632;2024-03-06T12:24:32;94856.50;;;4.03;100.00
56330;BME280;42236;48.058;10.632;2024-03-06T12:27:22;94852.97;;;4.08;100.00
56330;BME280;42236;48.058;10.632;2024-03-06T12:30:09;94856.66;;;4.12;100.00
56330;BME280;42236;48.058;10.632;2024-03-06T12:32:58;94858.44;;;4.17;100.00
56330;BME280;42236;48.058;10.632;2024-03-06T12:35:44;94853.78;;;4.22;100.00
56330;BME280;42236;48.058;10.632;2024-03-06T12:38:30;94858.38;;;4.36;100.00
56330;BME280;42236;48.058;10.632;2024-03-06T12:41:15;94857.09;;;4.47;100.00
56330;BME280;42236;48.058;10.632;2024-03-06T12:44:01;94854.03;;;4.54;100.00
56330;BME280;42236;48.058;10.632;2024-03-06T12:46:48;94849.84;;;4.61;100.00
56330;BME280;42236;48.058;10.632;2024-03-06T12:49:35;94861.03;;;4.63;100.00
56330;BME280;42236;48.058;10.632;2024-03-06T12:52:20;94856.81;;;4.62;100.00
56330;BME280;42236;48.058;10.632;2024-03-06T12:55:06;94854.63;;;4.64;100.00
56330;BME280;42236;48.058;10.632;2024-03-06T12:57:52;94853.44;;;4.70;100.00
56330;BME280;42236;48.058;10.632;2024-03-06T13:00:39;94857.88;;;4.75;100.00
56330;BME280;42236;48.058;10.632;2024-03-06T13:03:25;94854.31;;;4.80;100.00
56330;BME280;42236;48.058;10.632;2024-03-06T13:06:10;94854.53;;;4.83;100.00
56330;BME280;42236;48.058;10.632;2024-03-06T13:08:56;94847.78;;;4.86;100.00
56330;BME280;42236;48.058;10.632;2024-03-06T13:11:41;94854.44;;;4.88;100.00
56330;BME280;42236;48.058;10.632;2024-03-06T13:14:28;94851.31;;;4.95;100.00
56330;BME280;42236;48.058;10.632;2024-03-06T13:17:13;94860.34;;;4.99;100.00
56330;BME280;42236;48.058;10.632;2024-03-06T13:19:59;94861.94;;;5.00;100.00
56330;BME280;42236;48.058;10.632;2024-03-06T13:22:45;94863.00;;;4.99;100.00
56330;BME280;42236;48.058;10.632;2024-03-06T13:25:31;94858.28;;;4.96;100.00
56330;BME280;42236;48.058;10.632;2024-03-06T13:28:17;94856.00;;;4.89;100.00
56330;BME280;42236;48.058;10.632;2024-03-06T13:31:02;94859.56;;;4.85;100.00
56330;BME280;42236;48.058;10.632;2024-03-06T13:33:48;94868.47;;;4.80;100.00
56330;BME280;42236;48.058;10.632;2024-03-06T13:36:34;94859.16;;;4.78;100.00
56330;BME280;42236;48.058;10.632;2024-03-06T13:39:20;94860.16;;;4.82;100.00
56330;BME280;42236;48.058;10.632;2024-03-06T13:42:06;94851.25;;;4.73;100.00
56330;BME280;42236;48.058;10.632;2024-03-06T13:44:53;94861.53;;;4.65;100.00
56330;BME280;42236;48.058;10.632;2024-03-06T13:47:43;94855.72;;;4.63;100.00
56330;BME280;42236;48.058;10.632;2024-03-06T13:50:29;94860.75;;;4.65;100.00
56330;BME280;42236;48.058;10.632;2024-03-06T13:53:15;94864.13;;;4.70;100.00
56330;BME280;42236;48.058;10.632;2024-03-06T13:56:01;94865.13;;;4.75;100.00
56330;BME280;42236;48.058;10.632;2024-03-06T13:58:46;94874.03;;;4.70;100.00
56330;BME280;42236;48.058;10.632;2024-03-06T14:01:32;94871.63;;;4.68;100.00
56330;BME280;42236;48.058;10.632;2024-03-06T14:04:17;94879.44;;;4.51;100.00
56330;BME280;42236;48.058;10.632;2024-03-06T14:07:04;94883.19;;;4.36;100.00
56330;BME280;42236;48.058;10.632;2024-03-06T14:09:50;94884.66;;;4.28;100.00
56330;BME280;42236;48.058;10.632;2024-03-06T14:12:37;94886.66;;;4.23;100.00
56330;BME280;42236;48.058;10.632;2024-03-06T14:15:23;94888.81;;;4.21;100.00
56330;BME280;42236;48.058;10.632;2024-03-06T14:18:09;94891.41;;;4.26;100.00
56330;BME280;42236;48.058;10.632;2024-03-06T14:20:55;94899.69;;;4.24;100.00
56330;BME280;42236;48.058;10.632;2024-03-06T14:23:41;94893.75;;;4.27;100.00
56330;BME280;42236;48.058;10.632;2024-03-06T14:26:27;94897.44;;;4.32;100.00
56330;BME280;42236;48.058;10.632;2024-03-06T14:29:13;94894.66;;;4.37;100.00
56330;BME280;42236;48.058;10.632;2024-03-06T14:31:59;94899.91;;;4.42;100.00